Tiempo atmosférico en la estación meteorológica de Nerja, Málaga (169 m.)



Fecha
DESCASC
Temp. máxima en grados centígrados (hora)
DESCASC
Temp. mínima en grados centígrados (hora)
DESCASC
Temp. media en grados centígrados
DESCASC
Racha de viento máxima en m/sg (hora)
DESCASC
Velocidad máxima media en intervalos de 10 minutos(hora)
DESCASC
Precipitaciones diarias en mm
DESCASC
Precipitaciones de 00:00 a 06:00 en mm
DESCASC
Precipitaciones de 06:00 a 12:00 en mm
DESCASC
Precipitaciones de 12:00 a 18:00 en mm
DESCASC
Precipitaciones de 18:00 a 24:00 en mm
DESCASC
28-02-2021 17.4 (16:00) 11.3 (05:00) 14.3 5 (01:00) 2.78 (23:59) 0.4 0 0 0 0.4
27-02-2021 16 (13:20) 12.7 (08:10) 14.3 6.11 (17:40) 2.78 (16:40) 0 0 0 0 0
26-02-2021 18.2 (13:50) 11.6 (05:40) 14.9 5.28 (11:40) 2.78 (11:40) 0 0 0 0 0
25-02-2021 18.7 (13:40) 11.1 (00:00) 14.9 9.44 (00:10) 4.17 (00:10) 0 0 0 0 0
24-02-2021 18.1 (13:30) 10.8 (00:00) 14.5 11.67 (11:50) 5 (14:00) 0 0 0 0 0
23-02-2021 18.1 (15:00) 10.3 (00:00) 14.2 7.78 (16:10) 3.61 (04:40) 0 0 0 0 0
22-02-2021 18.2 (16:40) 10.3 (00:00) 14.3 10.83 (15:30) 5.56 (09:20) 0 0 0 0 0
21-02-2021 16.3 (11:40) 10.3 (00:00) 13.3 13.33 (14:50) 5.28 (15:00) 14.6 0 0 14.6 0
20-02-2021 16.9 (13:50) 10.3 (00:00) 13.6 5.83 (13:30) 2.5 (13:30) 0 0 0 0 0
19-02-2021 17.6 (15:40) 9.9 (00:00) 13.8 4.17 (13:20) 2.22 (15:50) 0 0 0 0 0
18-02-2021 16.1 (14:50) 9.6 (00:00) 12.9 5.28 (14:00) 3.33 (14:00) 0 0 0 0 0
17-02-2021 17.1 (16:20) 9.4 (00:00) 13.3 4.17 (06:20) 2.78 (06:10) 0 0 0 0 0
16-02-2021 16 (13:50) 8.8 (00:00) 12.4 4.17 (15:40) 2.78 (03:00) 0 0 0 0 0
15-02-2021 17 (14:40) 10.2 (00:00) 13.6 10.28 (15:20) 5 (15:00) 0 0 0 0 0
14-02-2021 19.1 (13:40) 11 (00:00) 15.1 9.17 (12:40) 4.17 (13:10) 0 0 0 0 0
13-02-2021 21.5 (14:30) 12.8 (00:00) 17.2 5.56 (02:00) 4.44 (04:10) 0 0 0 0 0
12-02-2021 23.6 (16:30) 12.9 (00:00) 18.3 14.44 (15:30) 6.94 (15:30) 0 0 0 0 0
11-02-2021 20.3 (14:40) 13.1 (00:00) 16.7 4.17 (08:20) 3.06 (08:20) 0 0 0 0 0
10-02-2021 18.9 (17:30) 13.5 (00:00) 16.2 13.61 (05:10) 6.11 (19:50) 2.8 0.4 1.4 1 0
09-02-2021 14.8 (13:40) 13.3 (00:00) 14.1 11.39 (03:10) 6.39 (03:10) 0.2 0 0 0.2 0
08-02-2021 17.9 (16:10) 10.8 (00:00) 14.3 13.89 (15:40) 6.39 (14:20) 23.6 2.2 21.2 0.2 0
07-02-2021 16.8 (16:30) 9.2 (00:00) 13 12.22 (13:50) 5.28 (15:50) 0 0 0 0 0
06-02-2021 16 (15:10) 11.1 (00:00) 13.6 10.28 (13:30) 5 (13:30) 1.4 1.4 0 0 0
05-02-2021 19.4 (08:50) 12.7 (00:00) 16 9.72 (23:30) 5.56 (23:30) 0.4 0 0 0 0.4
04-02-2021 18.2 (14:30) 12.4 (00:00) 15.3 4.44 (08:00) 2.22 (02:00) 0 0 0 0 0
03-02-2021 21.8 (13:20) 12 (00:00) 16.9 3.33 (06:40) 2.78 (06:40) 0 0 0 0 0
02-02-2021 21.2 (13:00) 12.8 (00:00) 17 5 (03:50) 3.06 (04:40) 0 0 0 0 0
01-02-2021 23.2 (15:20) 13.7 (00:00) 18.5 12.78 (07:10) 6.67 (05:50) 0 0 0 0 0
31-01-2021 20.4 (16:20) 13.6 (00:00) 17 19.72 (09:20) 10 (09:20) 0 0 0 0 0
30-01-2021 21.4 (15:30) 11.5 (00:00) 16.4 17.22 (16:10) 7.78 (17:10) 0 0 0 0 0

Gráficas

Temp. máximas Temp. mínimas Temp. medias Precipitaciones Rachas de viento máximas Velocidades máximas media en intervalos de 10 minutos

Datos horarios

Fecha y hora oficial Temperatura (ºC) Velocidad del viento (km/h) Dirección del viento Racha (km/h) Dirección de racha Precipitación (mm) Presión (hPa) Tendencia (hPa) Humedad (%)
2021-02-28 23:00:00 13.7 4 Oeste 17 Oeste 0 -- -- 80
2021-02-28 22:00:00 13.5 7 Noroeste 14 Noroeste 0 -- -- 81
2021-02-28 21:00:00 14 6 Noroeste 15 Noroeste 0 -- -- 81
2021-02-28 20:00:00 14.3 6 Oeste 15 Oeste 0 -- -- 80
2021-02-28 19:00:00 15.2 4 Sudoeste 10 Oeste 0 -- -- 77
2021-02-28 18:00:00 16.3 4 Norte 16 Sudeste 0 -- -- 70
2021-02-28 17:00:00 16.2 3 Sudeste 18 Este 0 -- -- 73
2021-02-28 16:00:00 17.4 5 Sudeste 15 Este 0 -- -- 67
2021-02-28 15:00:00 16.1 6 Sur 17 Sur 0 -- -- 66
2021-02-28 14:00:00 16.6 5 Sudeste 18 Sur 0 -- -- 63
2021-02-28 13:00:00 15.8 6 Sur 12 Sur 0 -- -- 66
2021-02-28 12:00:00 15.1 6 Sur 17 Sudoeste 0 -- -- 72
2021-02-28 11:00:00 15.1 6 Sur 17 Sudoeste 0 -- -- 73
2021-02-28 10:00:00 13.3 2 Sur 4 Nordeste 0 -- -- 77
2021-02-28 09:00:00 12.2 4 Nordeste 12 Norte 0 -- -- 82
2021-02-28 08:00:00 11.5 5 Noroeste 12 Noroeste 0 -- -- 83
2021-02-28 07:00:00 11.3 3 Noroeste 10 Norte 0 -- -- 84
2021-02-28 06:00:00 11.5 4 Norte 11 Norte 0 -- -- 85
2021-02-28 05:00:00 11.3 6 Noroeste 8 Noroeste 0 -- -- 89
2021-02-28 04:00:00 11.8 5 Noroeste 8 Noroeste 0 -- -- 86
2021-02-28 03:00:00 12 4 Norte 7 Norte 0 -- -- 86
2021-02-28 02:00:00 12.7 3 Este 15 Sudeste 0 -- -- 83
2021-02-28 01:00:00 12.9 9 Este 18 Sudeste 0 -- -- 82
2021-02-28 00:00:00 13 7 Sudeste 16 Este 0 -- -- 83
2021-02-27 23:00:00 13.1 4 Este 20 Este 0 -- -- 84
2021-02-27 22:00:00 13.3 6 Sudeste 16 Sudeste 0 -- -- 83
2021-02-27 21:00:00 13.5 4 Sudeste 17 Sudeste 0 -- -- 82
2021-02-27 20:00:00 13.6 5 Sudeste 18 Sudeste 0 -- -- 80
2021-02-27 19:00:00 13.8 6 Sudeste 21 Sudeste 0 -- -- 80
2021-02-27 18:00:00 14.1 8 Sudeste 22 Sudeste 0 -- -- 76
2021-02-27 17:00:00 14.5 9 Sudeste 21 Este 0 -- -- 75
2021-02-27 16:00:00 15.3 7 Sudeste 20 Sudeste 0 -- -- 72
2021-02-27 15:00:00 15 7 Sudeste 18 Sudeste 0 -- -- 68
2021-02-27 14:00:00 15.3 5 Sudeste 17 Sudeste 0 -- -- 66
2021-02-27 13:00:00 15.6 5 Sudeste 14 Sudeste 0 -- -- 71
2021-02-27 12:00:00 15.5 5 Sur 11 Sur 0 -- -- 69
2021-02-27 11:00:00 14.6 3 Sudoeste 9 Sur 0 -- -- 75
2021-02-27 10:00:00 13.8 0 Calma 7 Sudeste 0 -- -- 80
2021-02-27 09:00:00 12.9 0 Calma 4 Norte 0 -- -- 84
2021-02-27 08:00:00 12.8 2 Nordeste 7 Este 0 -- -- 84
2021-02-27 07:00:00 13 3 Este 10 Nordeste 0 -- -- 81
2021-02-27 06:00:00 13.1 4 Este 12 Sudeste 0 -- -- 82
2021-02-27 05:00:00 13.2 4 Sudeste 13 Sudeste 0 -- -- 86
2021-02-27 04:00:00 13.3 3 Sudeste 9 Sur 0 -- -- 85
2021-02-27 03:00:00 13.3 4 Sudeste 14 Sudeste 0 -- -- 85
2021-02-27 02:00:00 13.4 4 Sudeste 15 Sudeste 0 -- -- 86
2021-02-27 01:00:00 13.6 5 Sudeste 16 Este 0 -- -- 86
2021-02-27 00:00:00 13.8 5 Sudeste 14 Sudeste 0 -- -- 85
2021-02-26 23:00:00 14 2 Sudoeste 7 Sudoeste 0 -- -- 86
2021-02-26 22:00:00 14.1 2 Sudeste 8 Sudeste 0 -- -- 86
2021-02-26 21:00:00 14.3 2 Sudoeste 5 Sur 0 -- -- 86
2021-02-26 20:00:00 14.4 2 Sur 6 Sur 0 -- -- 86
2021-02-26 19:00:00 14.9 3 Sur 10 Sudeste 0 -- -- 83
2021-02-26 18:00:00 15.6 3 Sudeste 16 Sudeste 0 -- -- 79
2021-02-26 17:00:00 17.3 6 Sudeste 18 Sudeste 0 -- -- 71
2021-02-26 16:00:00 18 6 Sudeste 17 Sudeste 0 -- -- 68
2021-02-26 15:00:00 18 6 Sur 18 Sur 0 -- -- 68
2021-02-26 14:00:00 18.1 7 Sur 16 Sudeste 0 -- -- 68
2021-02-26 13:00:00 17.7 6 Sur 16 Sur 0 -- -- 72
2021-02-26 12:00:00 16.9 7 Sudoeste 19 Sudoeste 0 -- -- 74
2021-02-26 11:00:00 16.2 9 Sudoeste 18 Sudoeste 0 -- -- 76
2021-02-26 10:00:00 15.2 5 Sudoeste 9 Sudoeste 0 -- -- 78
2021-02-26 09:00:00 12.8 2 Norte 12 Norte 0 -- -- 82
2021-02-26 08:00:00 12 5 Norte 10 Norte 0 -- -- 81
2021-02-26 07:00:00 11.9 0 Calma 6 Norte 0 -- -- 83
2021-02-26 06:00:00 11.8 4 Norte 9 Norte 0 -- -- 84
2021-02-26 05:00:00 12 0 Calma 10 Oeste 0 -- -- 84
2021-02-26 04:00:00 12.6 5 Norte 14 Norte 0 -- -- 83
2021-02-26 03:00:00 12 0 Calma 10 Norte 0 -- -- 90
2021-02-26 02:00:00 12.1 4 Norte 10 Norte 0 -- -- 91
2021-02-26 01:00:00 12 5 Norte 13 Noroeste 0 -- -- 90
2021-02-26 00:00:00 12.7 5 Noroeste 10 Noroeste 0 -- -- 93
2021-02-25 23:00:00 12.8 4 Noroeste 12 Nordeste 0 -- -- 92
2021-02-25 22:00:00 13.3 6 Nordeste 11 Este 0 -- -- 89
2021-02-25 21:00:00 13.1 6 Noroeste 11 Oeste 0 -- -- 89
2021-02-25 20:00:00 13.6 3 Norte 7 Norte 0 -- -- 88
2021-02-25 19:00:00 15 2 Este 18 Sudeste 0 -- -- 83
2021-02-25 18:00:00 15.9 7 Sudeste 27 Sudeste 0 -- -- 77
2021-02-25 17:00:00 17 13 Este 32 Este 0 -- -- 67
2021-02-25 16:00:00 17.4 12 Sudeste 29 Sudeste 0 -- -- 72
2021-02-25 15:00:00 18.2 10 Sudeste 28 Sudeste 0 -- -- 66
2021-02-25 14:00:00 18.5 11 Sudeste 27 Sudeste 0 -- -- 62
2021-02-25 13:00:00 18.4 10 Sudeste 24 Este 0 -- -- 63
2021-02-25 12:00:00 17.5 8 Sudeste 19 Sudeste 0 -- -- 66
2021-02-25 11:00:00 16.1 6 Sudoeste 12 Sudoeste 0 -- -- 72
2021-02-25 10:00:00 14.6 4 Sur 9 Sur 0 -- -- 78
2021-02-25 09:00:00 12.7 2 Nordeste 11 Este 0 -- -- 80
2021-02-25 08:00:00 11.3 8 Norte 11 Norte 0 -- -- 82
2021-02-25 07:00:00 11.4 4 Norte 8 Noroeste 0 -- -- 82
2021-02-25 06:00:00 11.2 2 Norte 12 Norte 0 -- -- 81
2021-02-25 05:00:00 11.7 4 Noroeste 12 Noroeste 0 -- -- 80
2021-02-25 04:00:00 11.7 5 Oeste 14 Oeste 0 -- -- 83
2021-02-25 03:00:00 11.5 5 Noroeste 12 Noroeste 0 -- -- 85
2021-02-25 02:00:00 11.6 5 Noroeste 13 Oeste 0 -- -- 87
2021-02-25 01:00:00 12.7 3 Este 34 Este 0 -- -- 83
2021-02-25 00:00:00 13.3 15 Este 33 Este 0 -- -- 81
2021-02-24 23:00:00 13.8 9 Este 31 Norte 0 -- -- 82
2021-02-24 22:00:00 13.6 10 Este 33 Este 0 -- -- 85
2021-02-24 21:00:00 12 4 Nordeste 11 Sudeste 0 -- -- 91
2021-02-24 20:00:00 12.6 5 Oeste 11 Noroeste 0 -- -- 89
2021-02-24 19:00:00 13.9 5 Sudeste 29 Sudeste 0 -- -- 83
2021-02-24 18:00:00 14.7 14 Sudeste 30 Este 0 -- -- 79
2021-02-24 17:00:00 14.8 11 Este 27 Sudeste 0 -- -- 78
2021-02-24 16:00:00 14.9 11 Sudeste 40 Sudeste 0 -- -- 79
2021-02-24 15:00:00 15.6 14 Sudeste 39 Este 0 -- -- 77
2021-02-24 14:00:00 17.6 18 Sudeste 37 Sudeste 0 -- -- 68
2021-02-24 13:00:00 17.7 17 Sudeste 39 Este 0 -- -- 66
2021-02-24 12:00:00 17.5 13 Sudeste 42 Sudeste 0 -- -- 63
2021-02-24 11:00:00 16.5 8 Este 36 Este 0 -- -- 61
2021-02-24 10:00:00 14.6 5 Sudeste 15 Sudeste 0 -- -- 68
2021-02-24 09:00:00 13.1 3 Este 23 Este 0 -- -- 73
2021-02-24 08:00:00 12.5 7 Este 22 Este 0 -- -- 72
2021-02-24 07:00:00 10.8 8 Norte 13 Norte 0 -- -- 79
2021-02-24 06:00:00 10.9 6 Norte 11 Noroeste 0 -- -- 80
2021-02-24 05:00:00 10.9 0 Calma 8 Norte 0 -- -- 79
2021-02-24 04:00:00 11.1 3 Noroeste 8 Noroeste 0 -- -- 78
2021-02-24 03:00:00 11.2 2 Norte 8 Sudeste 0 -- -- 76
2021-02-24 02:00:00 11.8 6 Este 19 Sudeste 0 -- -- 74
2021-02-24 01:00:00 11.9 5 Norte 13 Norte 0 -- -- 78
2021-02-24 00:00:00 13.2 6 Sudeste 17 Sudeste 0 -- -- 76
2021-02-23 23:00:00 13.4 3 Este 17 Este 0 -- -- 69
2021-02-23 22:00:00 13.2 6 Nordeste 19 Sudeste 0 -- -- 69
2021-02-23 21:00:00 13.1 6 Nordeste 14 Sudeste 0 -- -- 67
2021-02-23 20:00:00 12.4 0 Calma 7 Este 0 -- -- 78
2021-02-23 19:00:00 14.2 3 Nordeste 26 Sudeste 0 -- -- 71
2021-02-23 18:00:00 14.8 10 Sudeste 25 Sudeste 0 -- -- 70
2021-02-23 17:00:00 16.9 8 Sudeste 28 Este 0 -- -- 68
2021-02-23 16:00:00 17 10 Sudeste 25 Sudeste 0 -- -- 63
2021-02-23 15:00:00 18.1 10 Sudeste 27 Sudeste 0 -- -- 58
2021-02-23 14:00:00 17 12 Sudeste 26 Sudeste 0 -- -- 55
2021-02-23 13:00:00 17.6 6 Sudeste 18 Sudeste 0 -- -- 47
2021-02-23 12:00:00 17 7 Sudeste 18 Sudeste 0 -- -- 50
2021-02-23 11:00:00 16.7 7 Sudeste 17 Sudeste 0 -- -- 44
2021-02-23 10:00:00 15 3 Sur 7 Nordeste 0 -- -- 46
2021-02-23 09:00:00 11.3 4 Norte 13 Norte 0 -- -- 55
2021-02-23 08:00:00 10.4 9 Norte 14 Norte 0 -- -- 51
2021-02-23 07:00:00 10.5 8 Norte 15 Norte 0 -- -- 48
2021-02-23 06:00:00 10.6 12 Norte 19 Norte 0 -- -- 49
2021-02-23 05:00:00 10.9 12 Norte 17 Norte 0 -- -- 47
2021-02-23 04:00:00 11 11 Norte 15 Norte 0 -- -- 46
2021-02-23 03:00:00 11.2 12 Norte 17 Nordeste 0 -- -- 45
2021-02-23 02:00:00 11.1 12 Norte 16 Norte 0 -- -- 45
2021-02-23 01:00:00 11.3 6 Norte 12 Norte 0 -- -- 45
2021-02-23 00:00:00 11.6 11 Norte 16 Norte 0 -- -- 43
2021-02-22 23:00:00 12 8 Noroeste 18 Noroeste 0 -- -- 46
2021-02-22 22:00:00 11.2 9 Norte 15 Norte 0 -- -- 49
2021-02-22 21:00:00 13 8 Norte 26 Noroeste 0 -- -- 45
2021-02-22 20:00:00 13.6 12 Noroeste 23 Sudoeste 0 -- -- 45
2021-02-22 19:00:00 14.9 3 Noroeste 34 Noroeste 0 -- -- 38
2021-02-22 18:00:00 16.7 15 Norte 32 Norte 0 -- -- 31
2021-02-22 17:00:00 18.2 10 Norte 32 Oeste 0 -- -- 29
2021-02-22 16:00:00 17.6 12 Oeste 39 Oeste 0 -- -- 30
2021-02-22 15:00:00 17.7 10 Oeste 30 Noroeste 0 -- -- 32
2021-02-22 14:00:00 17 10 Noroeste 33 Sudoeste 0 -- -- 34
2021-02-22 13:00:00 15.2 14 Sudoeste 35 Sur 0 -- -- 50
2021-02-22 12:00:00 14.3 13 Sudoeste 30 Sudoeste 0 -- -- 57
2021-02-22 11:00:00 13.8 13 Noroeste 33 Norte 0 -- -- 43
2021-02-22 10:00:00 12.4 15 Noroeste 34 Norte 0 -- -- 44
2021-02-22 09:00:00 11.3 15 Noroeste 27 Noroeste 0 -- -- 47
2021-02-22 08:00:00 10.5 14 Noroeste 23 Nordeste 0 -- -- 53
2021-02-22 07:00:00 10.6 8 Noroeste 22 Oeste 0 -- -- 54
2021-02-22 06:00:00 10.8 8 Noroeste 31 Noroeste 0 -- -- 56
2021-02-22 05:00:00 11.7 12 Noroeste 29 Noroeste 0 -- -- 52
2021-02-22 04:00:00 11 7 Noroeste 21 Oeste 0 -- -- 60
2021-02-22 03:00:00 11.3 13 Oeste 23 Noroeste 0 -- -- 65
2021-02-22 02:00:00 11 10 Oeste 19 Oeste 0 -- -- 70
2021-02-22 01:00:00 11.2 11 Noroeste 20 Oeste 0 -- -- 66
2021-02-22 00:00:00 11 6 Oeste 26 Oeste 0 -- -- 67
2021-02-21 23:00:00 10.7 10 Noroeste 19 Oeste 0 -- -- 71
2021-02-21 22:00:00 10.6 6 Oeste 26 Noroeste 0 -- -- 73
2021-02-21 21:00:00 11.3 16 Oeste 33 Oeste 0 -- -- 71
2021-02-21 20:00:00 11 12 Oeste 30 Oeste 0 -- -- 79
2021-02-21 19:00:00 11.5 9 Noroeste 23 Oeste 0 -- -- 90
2021-02-21 18:00:00 11.8 7 Noroeste 23 Sudoeste 1.6 -- -- 93
2021-02-21 17:00:00 12.7 7 Sudoeste 22 Norte 0 -- -- 87
2021-02-21 16:00:00 12 14 Norte 29 Norte 6.2 -- -- 95
2021-02-21 15:00:00 11.5 19 Oeste 48 Sur 6 -- -- 90
2021-02-21 14:00:00 13.9 4 Norte 13 Norte 0.8 -- -- 89
2021-02-21 13:00:00 14.9 5 Oeste 16 Oeste 0 -- -- 77
2021-02-21 12:00:00 15.7 8 Sudoeste 21 Sudoeste 0 -- -- 74
2021-02-21 11:00:00 15.4 4 Noroeste 11 Oeste 0 -- -- 61
2021-02-21 10:00:00 14.7 2 Sur 12 Norte 0 -- -- 69
2021-02-21 09:00:00 14.4 5 Noroeste 15 Noroeste 0 -- -- 59
2021-02-21 08:00:00 15.1 8 Noroeste 21 Norte 0 -- -- 54
2021-02-21 07:00:00 15.6 16 Norte 23 Norte 0 -- -- 52
2021-02-21 06:00:00 13.6 5 Norte 16 Noroeste 0 -- -- 67
2021-02-21 05:00:00 12.9 8 Oeste 14 Noroeste 0 -- -- 75
2021-02-21 04:00:00 12.7 4 Noroeste 9 Nordeste 0 -- -- 83
2021-02-21 03:00:00 12.5 6 Noroeste 14 Noroeste 0 -- -- 89
2021-02-21 02:00:00 12.4 4 Norte 7 Norte 0 -- -- 92
2021-02-21 01:00:00 12.8 0 Calma 13 Norte 0 -- -- 90
2021-02-21 00:00:00 13.4 3 Norte 10 Norte 0 -- -- 91
2021-02-20 23:00:00 13.2 7 Norte 10 Norte 0 -- -- 90
2021-02-20 22:00:00 13.2 5 Norte 8 Norte 0 -- -- 91
2021-02-20 21:00:00 13.3 0 Calma 5 Este 0 -- -- 90
2021-02-20 20:00:00 13.7 2 Sudeste 7 Este 0 -- -- 90
2021-02-20 19:00:00 13.9 3 Sudeste 9 Sudeste 0 -- -- 89
2021-02-20 18:00:00 14.1 4 Sudeste 11 Sur 0 -- -- 89
2021-02-20 17:00:00 14.5 5 Sudeste 12 Sudeste 0 -- -- 87
2021-02-20 16:00:00 14.3 5 Sudeste 15 Sudeste 0 -- -- 87
2021-02-20 15:00:00 15.1 6 Sudeste 17 Este 0 -- -- 82
2021-02-20 14:00:00 16.4 8 Sudeste 21 Sudeste 0 -- -- 76
2021-02-20 13:00:00 16.2 8 Sudeste 19 Sudeste 0 -- -- 72
2021-02-20 12:00:00 16.2 5 Sudeste 11 Sur 0 -- -- 73
2021-02-20 11:00:00 15 4 Sur 10 Sur 0 -- -- 83
2021-02-20 10:00:00 13.3 0 Calma 8 Noroeste 0 -- -- 90
2021-02-20 09:00:00 11.9 4 Noroeste 8 Noroeste 0 -- -- 95
2021-02-20 08:00:00 10.7 4 Nordeste 13 Norte 0 -- -- 96
2021-02-20 07:00:00 10.4 8 Norte 12 Norte 0 -- -- 96
2021-02-20 06:00:00 10.5 2 Este 8 Norte 0 -- -- 94
2021-02-20 05:00:00 10.7 4 Noroeste 10 Noroeste 0 -- -- 94
2021-02-20 04:00:00 10.5 2 Norte 6 Este 0 -- -- 92
2021-02-20 03:00:00 10.6 5 Norte 12 Norte 0 -- -- 92
2021-02-20 02:00:00 11 4 Norte 9 Norte 0 -- -- 93
2021-02-20 01:00:00 11.7 6 Noroeste 10 Noroeste 0 -- -- 94
2021-02-20 00:00:00 11.9 5 Noroeste 9 Noroeste 0 -- -- 95
2021-02-19 23:00:00 11.6 3 Este 10 Este 0 -- -- 90
2021-02-19 22:00:00 11.6 5 Norte 7 Noroeste 0 -- -- 92
2021-02-19 21:00:00 12.1 2 Noroeste 7 Norte 0 -- -- 92
2021-02-19 20:00:00 12.5 6 Norte 8 Norte 0 -- -- 91
2021-02-19 19:00:00 15.3 0 Calma 6 Sudoeste 0 -- -- 83
2021-02-19 18:00:00 16.7 3 Sudeste 12 Sur 0 -- -- 78
2021-02-19 17:00:00 17 5 Sudeste 13 Sur 0 -- -- 76
2021-02-19 16:00:00 17.3 5 Sur 13 Sudeste 0 -- -- 77
2021-02-19 15:00:00 17.1 6 Sudeste 14 Sudeste 0 -- -- 75
2021-02-19 14:00:00 17 6 Sur 15 Sudoeste 0 -- -- 76
2021-02-19 13:00:00 16.7 5 Sur 13 Sur 0 -- -- 76
2021-02-19 12:00:00 15.7 6 Sudeste 12 Sur 0 -- -- 80
2021-02-19 11:00:00 15 4 Sudeste 9 Sudeste 0 -- -- 83
2021-02-19 10:00:00 13.5 2 Sur 4 Sudeste 0 -- -- 85
2021-02-19 09:00:00 10.8 0 Calma 5 Nordeste 0 -- -- 92
2021-02-19 08:00:00 10 2 Nordeste 6 Nordeste 0 -- -- 87
2021-02-19 07:00:00 10.3 5 Norte 9 Norte 0 -- -- 88
2021-02-19 06:00:00 10 7 Norte 10 Norte 0 -- -- 85
2021-02-19 05:00:00 10 2 Norte 5 Norte 0 -- -- 95
2021-02-19 04:00:00 10.2 5 Norte 8 Norte 0 -- -- 94
2021-02-19 03:00:00 10.7 0 Calma 9 Norte 0 -- -- 93
2021-02-19 02:00:00 10.2 6 Norte 9 Norte 0 -- -- 90
2021-02-19 01:00:00 10.6 2 Norte 9 Norte 0 -- -- 87
2021-02-19 00:00:00 10.9 3 Norte 10 Norte 0 -- -- 90
2021-02-18 23:00:00 10.9 7 Norte 9 Norte 0 -- -- 92
2021-02-18 22:00:00 11 5 Norte 9 Norte 0 -- -- 93
2021-02-18 21:00:00 11.4 4 Norte 8 Norte 0 -- -- 93
2021-02-18 20:00:00 12.2 0 Calma 5 Norte 0 -- -- 91
2021-02-18 19:00:00 13.8 0 Calma 6 Sudoeste 0 -- -- 86
2021-02-18 18:00:00 14.2 3 Sur 11 Sudoeste 0 -- -- 86
2021-02-18 17:00:00 15.5 7 Sur 13 Sur 0 -- -- 81
2021-02-18 16:00:00 15.4 6 Sudoeste 17 Sur 0 -- -- 81
2021-02-18 15:00:00 16.1 10 Sur 18 Sudeste 0 -- -- 76
2021-02-18 14:00:00 15.7 12 Sur 19 Sudoeste 0 -- -- 76
2021-02-18 13:00:00 15.9 10 Sudoeste 16 Sudoeste 0 -- -- 77
2021-02-18 12:00:00 15.3 8 Sudoeste 16 Sudoeste 0 -- -- 77
2021-02-18 11:00:00 14.3 4 Sur 9 Sudeste 0 -- -- 78
2021-02-18 10:00:00 13 3 Sur 9 Norte 0 -- -- 82
2021-02-18 09:00:00 10.6 3 Norte 10 Norte 0 -- -- 81
2021-02-18 08:00:00 9.8 5 Noroeste 13 Norte 0 -- -- 80
2021-02-18 07:00:00 10.3 9 Norte 12 Norte 0 -- -- 78
2021-02-18 06:00:00 10.9 0 Calma 5 Norte 0 -- -- 73
2021-02-18 05:00:00 10.5 2 Norte 9 Norte 0 -- -- 75
2021-02-18 04:00:00 10.3 0 Calma 8 Norte 0 -- -- 80
2021-02-18 03:00:00 10.5 5 Norte 9 Norte 0 -- -- 82
2021-02-18 02:00:00 10.3 4 Norte 9 Norte 0 -- -- 82
2021-02-18 01:00:00 10.8 0 Calma 9 Norte 0 -- -- 79
2021-02-18 00:00:00 11.1 3 Norte 7 Norte 0 -- -- 81
2021-02-17 23:00:00 11 0 Calma 8 Norte 0 -- -- 85
2021-02-17 22:00:00 11 0 Calma 8 Oeste 0 -- -- 87
2021-02-17 21:00:00 11.1 2 Norte 5 Nordeste 0 -- -- 92
2021-02-17 20:00:00 11.6 2 Nordeste 5 Norte 0 -- -- 90
2021-02-17 19:00:00 13.9 2 Oeste 6 Sur 0 -- -- 82
2021-02-17 18:00:00 15.5 3 Sudoeste 8 Sur 0 -- -- 79
2021-02-17 17:00:00 16.8 4 Sudoeste 8 Sur 0 -- -- 75
2021-02-17 16:00:00 16.9 5 Sur 10 Sudoeste 0 -- -- 74
2021-02-17 15:00:00 16.7 5 Sur 12 Sur 0 -- -- 75
2021-02-17 14:00:00 16 6 Sur 12 Sudoeste 0 -- -- 75
2021-02-17 13:00:00 15.6 4 Sur 11 Sudeste 0 -- -- 76
2021-02-17 12:00:00 15 5 Sur 10 Sudeste 0 -- -- 77
2021-02-17 11:00:00 14.1 4 Sur 7 Sudeste 0 -- -- 80
2021-02-17 10:00:00 12.5 2 Sur 5 Sudeste 0 -- -- 86
2021-02-17 09:00:00 10.1 2 Oeste 6 Norte 0 -- -- 88
2021-02-17 08:00:00 9.4 0 Calma 4 Nordeste 0 -- -- 86
2021-02-17 07:00:00 9.7 2 Este 15 Norte 0 -- -- 85
2021-02-17 06:00:00 9.5 6 Norte 9 Norte 0 -- -- 88
2021-02-17 05:00:00 9.6 2 Nordeste 9 Norte 0 -- -- 86
2021-02-17 04:00:00 9.8 4 Norte 8 Norte 0 -- -- 86
2021-02-17 03:00:00 9.8 4 Norte 7 Norte 0 -- -- 85
2021-02-17 02:00:00 9.8 2 Norte 6 Norte 0 -- -- 91
2021-02-17 01:00:00 10 3 Norte 8 Norte 0 -- -- 89
2021-02-17 00:00:00 10 6 Norte 8 Nordeste 0 -- -- 88
2021-02-16 23:00:00 10 6 Norte 9 Nordeste 0 -- -- 88
2021-02-16 22:00:00 10.1 6 Norte 9 Norte 0 -- -- 88
2021-02-16 21:00:00 10.4 5 Norte 9 Norte 0 -- -- 87
2021-02-16 20:00:00 11.1 5 Norte 8 Norte 0 -- -- 85
2021-02-16 19:00:00 13.1 0 Calma 8 Sudoeste 0 -- -- 77
2021-02-16 18:00:00 14.9 5 Sudoeste 11 Sudoeste 0 -- -- 69
2021-02-16 17:00:00 15.4 5 Sur 13 Sudoeste 0 -- -- 65
2021-02-16 16:00:00 15.8 7 Sur 15 Sur 0 -- -- 68
2021-02-16 15:00:00 15.5 8 Sur 15 Sudoeste 0 -- -- 68
2021-02-16 14:00:00 16 6 Sur 14 Sudeste 0 -- -- 68
2021-02-16 13:00:00 15.5 6 Sudeste 14 Sur 0 -- -- 68
2021-02-16 12:00:00 15 5 Sur 13 Sur 0 -- -- 70
2021-02-16 11:00:00 14.4 4 Sur 12 Sudeste 0 -- -- 71
2021-02-16 10:00:00 12.4 3 Sur 6 Sur 0 -- -- 72
2021-02-16 09:00:00 9.5 4 Nordeste 10 Norte 0 -- -- 83
2021-02-16 08:00:00 8.9 6 Norte 12 Norte 0 -- -- 82
2021-02-16 07:00:00 8.9 8 Norte 13 Norte 0 -- -- 81
2021-02-16 06:00:00 9.4 9 Norte 12 Norte 0 -- -- 79
2021-02-16 05:00:00 9.6 8 Norte 13 Norte 0 -- -- 80
2021-02-16 04:00:00 9.8 8 Norte 13 Norte 0 -- -- 79
2021-02-16 03:00:00 10 10 Norte 13 Norte 0 -- -- 80
2021-02-16 02:00:00 10.1 9 Norte 13 Norte 0 -- -- 81
2021-02-16 01:00:00 10.4 9 Norte 12 Norte 0 -- -- 80
2021-02-16 00:00:00 10.7 8 Norte 11 Norte 0 -- -- 79
2021-02-15 23:00:00 10.9 7 Norte 10 Norte 0 -- -- 79
2021-02-15 22:00:00 11.2 6 Norte 10 Norte 0 -- -- 78
2021-02-15 21:00:00 11.3 3 Norte 10 Norte 0 -- -- 77
2021-02-15 20:00:00 12.1 5 Norte 15 Nordeste 0 -- -- 72
2021-02-15 19:00:00 13.9 8 Este 25 Este 0 -- -- 66
2021-02-15 18:00:00 15.5 10 Sudeste 32 Sudeste 0 -- -- 62
2021-02-15 17:00:00 16 17 Sudeste 35 Sudeste 0 -- -- 61
2021-02-15 16:00:00 16.5 17 Sudeste 37 Sudeste 0 -- -- 59
2021-02-15 15:00:00 16.9 18 Sudeste 35 Sudeste 0 -- -- 57
2021-02-15 14:00:00 16.8 17 Sudeste 34 Este 0 -- -- 59
2021-02-15 13:00:00 16.5 16 Sudeste 31 Este 0 -- -- 60
2021-02-15 12:00:00 16.5 9 Sudeste 27 Sudeste 0 -- -- 64
2021-02-15 11:00:00 15.6 8 Sudeste 21 Este 0 -- -- 64
2021-02-15 10:00:00 13.9 8 Sudeste 22 Sudeste 0 -- -- 69
2021-02-15 09:00:00 11.9 2 Sur 15 Este 0 -- -- 76
2021-02-15 08:00:00 12.6 8 Sudeste 22 Sudeste 0 -- -- 64
2021-02-15 07:00:00 10.3 0 Calma 6 Norte 0 -- -- 79
2021-02-15 06:00:00 10.5 0 Calma 5 Norte 0 -- -- 80
2021-02-15 05:00:00 10.4 0 Calma 9 Noroeste 0 -- -- 82
2021-02-15 04:00:00 10.4 3 Noroeste 8 Noroeste 0 -- -- 80
2021-02-15 03:00:00 10.8 2 Noroeste 15 Norte 0 -- -- 78
2021-02-15 02:00:00 11.1 3 Nordeste 8 Norte 0 -- -- 80
2021-02-15 01:00:00 11.5 2 Norte 5 Sur 0 -- -- 77
2021-02-15 00:00:00 12.1 2 Norte 5 Sudeste 0 -- -- 72
2021-02-14 23:00:00 13.1 2 Nordeste 14 Este 0 -- -- 66
2021-02-14 22:00:00 14.9 8 Este 27 Este 0 -- -- 57
2021-02-14 21:00:00 15.5 10 Este 26 Este 0 -- -- 53
2021-02-14 20:00:00 15.3 6 Este 32 Nordeste 0 -- -- 56
2021-02-14 19:00:00 15.4 13 Este 32 Este 0 -- -- 65
2021-02-14 18:00:00 16.6 10 Sudeste 24 Sudeste 0 -- -- 74
2021-02-14 17:00:00 17.7 9 Sudeste 28 Este 0 -- -- 69
2021-02-14 16:00:00 18 9 Sudeste 22 Sudeste 0 -- -- 67
2021-02-14 15:00:00 18.8 9 Sudeste 30 Este 0 -- -- 57
2021-02-14 14:00:00 19 11 Sudeste 28 Sudeste 0 -- -- 54
2021-02-14 13:00:00 18.5 13 Sudeste 33 Sudeste 0 -- -- 52
2021-02-14 12:00:00 18 10 Sudeste 23 Este 0 -- -- 56
2021-02-14 11:00:00 16.9 5 Sudeste 13 Este 0 -- -- 51
2021-02-14 10:00:00 14.6 0 Calma 6 Norte 0 -- -- 59
2021-02-14 09:00:00 11.5 3 Noroeste 12 Norte 0 -- -- 65
2021-02-14 08:00:00 11.2 3 Norte 12 Norte 0 -- -- 62
2021-02-14 07:00:00 11.4 9 Norte 13 Norte 0 -- -- 59
2021-02-14 06:00:00 11.7 7 Norte 12 Norte 0 -- -- 57
2021-02-14 05:00:00 12 8 Norte 12 Norte 0 -- -- 56
2021-02-14 04:00:00 11.9 6 Norte 13 Norte 0 -- -- 56
2021-02-14 03:00:00 12.1 2 Norte 13 Norte 0 -- -- 58
2021-02-14 02:00:00 12.3 2 Nordeste 10 Norte 0 -- -- 57
2021-02-14 01:00:00 13.2 5 Nordeste 14 Norte 0 -- -- 54
2021-02-14 00:00:00 13.3 0 Calma 13 Norte 0 -- -- 56
2021-02-13 23:00:00 12.8 9 Norte 14 Norte 0 -- -- 60
2021-02-13 22:00:00 13 7 Norte 13 Norte 0 -- -- 60
2021-02-13 21:00:00 13.6 9 Norte 13 Norte 0 -- -- 60
2021-02-13 20:00:00 14 7 Norte 14 Norte 0 -- -- 59
2021-02-13 19:00:00 15.8 4 Norte 7 Norte 0 -- -- 54
2021-02-13 18:00:00 18.8 2 Sudoeste 6 Sudoeste 0 -- -- 45
2021-02-13 17:00:00 18.3 3 Sudoeste 12 Sudoeste 0 -- -- 42
2021-02-13 16:00:00 19.3 5 Sudoeste 11 Sudoeste 0 -- -- 41
2021-02-13 15:00:00 19.7 4 Sur 14 Sur 0 -- -- 42
2021-02-13 14:00:00 20.9 6 Sur 12 Sur 0 -- -- 40
2021-02-13 13:00:00 20.4 5 Sur 9 Sur 0 -- -- 38
2021-02-13 08:00:00 -- -- -- -- -- -- -- -- --
2021-02-13 07:00:00 -- -- -- -- -- -- -- -- --
2021-02-13 06:00:00 -- -- -- -- -- -- -- -- --
2021-02-13 05:00:00 -- -- -- -- -- -- -- -- --
2021-02-13 04:00:00 14.3 13 Norte 17 Norte 0 -- -- 42
2021-02-13 03:00:00 14.6 10 Norte 19 Norte 0 -- -- 43
2021-02-13 02:00:00 15.7 12 Norte 20 Nordeste 0 -- -- 40
2021-02-13 01:00:00 15.5 12 Norte 18 Norte 0 -- -- 45
2021-02-13 00:00:00 15.7 9 Norte 28 Norte 0 -- -- 43
2021-02-12 23:00:00 17.3 12 Norte 31 Noroeste 0 -- -- 38
2021-02-12 22:00:00 16.9 13 Norte 29 Norte 0 -- -- 43
2021-02-12 21:00:00 17.6 13 Noroeste 29 Noroeste 0 -- -- 44
2021-02-12 20:00:00 17.3 11 Norte 24 Noroeste 0 -- -- 41
2021-02-12 19:00:00 18.7 14 Noroeste 35 Oeste 0 -- -- 41
2021-02-12 18:00:00 20.6 22 Norte 39 Noroeste 0 -- -- 40
2021-02-12 17:00:00 23.1 11 Nordeste 31 Noroeste 0 -- -- 28
2021-02-12 16:00:00 23.2 15 Noroeste 52 Oeste 0 -- -- 21
2021-02-12 15:00:00 22.4 17 Oeste 35 Noroeste 0 -- -- 30
2021-02-12 14:00:00 22.6 14 Noroeste 32 Noroeste 0 -- -- 39
2021-02-12 13:00:00 21.8 13 Sudoeste 31 Oeste 0 -- -- 46
2021-02-12 12:00:00 21.8 10 Noroeste 26 Sudoeste 0 -- -- 45
2021-02-12 11:00:00 18.8 6 Sudoeste 15 Oeste 0 -- -- 68
2021-02-12 10:00:00 16.4 2 Sudeste 12 Sudeste 0 -- -- 75
2021-02-12 09:00:00 13.7 4 Nordeste 15 Norte 0 -- -- 84
2021-02-12 08:00:00 13.2 12 Norte 17 Norte 0 -- -- 84
2021-02-12 07:00:00 13.9 6 Nordeste 16 Norte 0 -- -- 80
2021-02-12 06:00:00 13.3 3 Norte 10 Nordeste 0 -- -- 85
2021-02-12 05:00:00 13.5 5 Nordeste 8 Nordeste 0 -- -- 84
2021-02-12 04:00:00 14.2 2 Este 9 Norte 0 -- -- 79
2021-02-12 03:00:00 14.3 0 Calma 6 Norte 0 -- -- 81
2021-02-12 02:00:00 14.5 0 Calma 4 Norte 0 -- -- 80
2021-02-12 01:00:00 14.2 4 Norte 9 Norte 0 -- -- 81
2021-02-12 00:00:00 14.4 3 Nordeste 6 Norte 0 -- -- 79
2021-02-11 23:00:00 14.8 0 Calma 3 Este 0 -- -- 80
2021-02-11 22:00:00 15.1 0 Calma 8 Oeste 0 -- -- 80
2021-02-11 21:00:00 15.4 5 Norte 13 Noroeste 0 -- -- 81
2021-02-11 20:00:00 15.5 2 Oeste 10 Oeste 0 -- -- 81
2021-02-11 19:00:00 17.5 3 Nordeste 5 Norte 0 -- -- 75
2021-02-11 18:00:00 18.7 0 Calma 9 Sudoeste 0 -- -- 70
2021-02-11 17:00:00 19.4 3 Sudoeste 12 Sur 0 -- -- 71
2021-02-11 16:00:00 19.8 7 Sudoeste 12 Sudoeste 0 -- -- 69
2021-02-11 15:00:00 20 5 Sur 9 Sur 0 -- -- 65
2021-02-11 14:00:00 19.5 5 Sur 12 Sur 0 -- -- 68
2021-02-11 13:00:00 19.4 4 Sur 12 Este 0 -- -- 67
2021-02-11 12:00:00 19.8 4 Sudeste 15 Sudeste 0 -- -- 65
2021-02-11 11:00:00 18.9 5 Sudeste 11 Sudeste 0 -- -- 71
2021-02-11 10:00:00 16.4 2 Sur 10 Norte 0 -- -- 80
2021-02-11 09:00:00 14.3 4 Noroeste 15 Norte 0 -- -- 83
2021-02-11 08:00:00 13.8 5 Nordeste 10 Nordeste 0 -- -- 83
2021-02-11 07:00:00 14.1 6 Norte 12 Norte 0 -- -- 82
2021-02-11 06:00:00 13.3 3 Este 11 Norte 0 -- -- 87
2021-02-11 05:00:00 13.1 0 Calma 8 Noroeste 0 -- -- 89
2021-02-11 04:00:00 13.3 3 Nordeste 7 Norte 0 -- -- 89
2021-02-11 03:00:00 13.6 5 Norte 9 Norte 0 -- -- 88
2021-02-11 02:00:00 13.6 3 Nordeste 13 Norte 0 -- -- 88
2021-02-11 01:00:00 14 7 Norte 13 Norte 0 -- -- 88
2021-02-11 00:00:00 13.5 4 Noroeste 10 Norte 0 -- -- 89
2021-02-10 23:00:00 14.4 3 Nordeste 10 Este 0 -- -- 87
2021-02-10 22:00:00 15.8 4 Este 24 Oeste 0 -- -- 82
2021-02-10 21:00:00 16.4 7 Oeste 36 Noroeste 0 -- -- 80
2021-02-10 20:00:00 17.6 15 Noroeste 44 Oeste 0 -- -- 72
2021-02-10 19:00:00 17.3 17 Oeste 33 Oeste 0 -- -- 77
2021-02-10 18:00:00 16.7 8 Oeste 30 Oeste 0 -- -- 85
2021-02-10 17:00:00 17.7 10 Oeste 24 Sudoeste 0 -- -- 83
2021-02-10 16:00:00 17.1 13 Oeste 32 Oeste 0 -- -- 88
2021-02-10 15:00:00 16.6 11 Oeste 29 Oeste 0.2 -- -- 96
2021-02-10 14:00:00 14.4 12 Sudoeste 28 Oeste 0.4 -- -- 96
2021-02-10 13:00:00 14.3 13 Noroeste 27 Oeste 0.4 -- -- 93
2021-02-10 12:00:00 14.5 12 Oeste 31 Noroeste 0.4 -- -- 92
2021-02-10 11:00:00 14.5 15 Oeste 42 Noroeste 0.4 -- -- 90
2021-02-10 10:00:00 13.7 7 Noroeste 24 Oeste 0.6 -- -- 92
2021-02-10 09:00:00 14.6 8 Oeste 34 Oeste 0 -- -- 81
2021-02-10 08:00:00 16 13 Oeste 37 Oeste 0 -- -- 67
2021-02-10 07:00:00 14.9 12 Oeste 31 Oeste 0 -- -- 72
2021-02-10 06:00:00 15.4 14 Oeste 49 Noroeste 0 -- -- 70
2021-02-10 05:00:00 15.5 19 Oeste 46 Oeste 0 -- -- 68
2021-02-10 04:00:00 15.2 17 Noroeste 41 Oeste 0 -- -- 69
2021-02-10 03:00:00 14.5 13 Oeste 37 Oeste 0 -- -- 77
2021-02-10 02:00:00 14.8 12 Oeste 31 Noroeste 0 -- -- 75
2021-02-10 01:00:00 13.6 12 Noroeste 28 Noroeste 0.4 -- -- 90
2021-02-10 00:00:00 13.8 6 Oeste 15 Sudoeste 0 -- -- 91
2021-02-09 23:00:00 13.9 5 Noroeste 12 Noroeste 0 -- -- 91
2021-02-09 22:00:00 13.8 5 Oeste 32 Sudoeste 0 -- -- 93
2021-02-09 21:00:00 14.4 12 Oeste 39 Oeste 0 -- -- 88
2021-02-09 20:00:00 14.8 14 Oeste 30 Noroeste 0 -- -- 83
2021-02-09 19:00:00 14.7 10 Oeste 29 Noroeste 0 -- -- 86
2021-02-09 18:00:00 14.7 12 Oeste 32 Oeste 0 -- -- 87
2021-02-09 17:00:00 14.2 8 Oeste 21 Sudoeste 0 -- -- 92
2021-02-09 16:00:00 13.9 6 Oeste 23 Oeste 0 -- -- 94
2021-02-09 15:00:00 14.1 6 Oeste 22 Oeste 0.2 -- -- 90
2021-02-09 14:00:00 14.6 9 Oeste 22 Oeste 0 -- -- 81
2021-02-09 13:00:00 14.4 6 Oeste 23 Noroeste 0 -- -- 81
2021-02-09 12:00:00 14.1 11 Oeste 26 Noroeste 0 -- -- 80
2021-02-09 11:00:00 13.4 5 Oeste 13 Oeste 0 -- -- 75
2021-02-09 10:00:00 13.9 4 Oeste 12 Oeste 0 -- -- 66
2021-02-09 09:00:00 13.4 8 Oeste 18 Oeste 0 -- -- 62
2021-02-09 08:00:00 14.6 7 Noroeste 39 Noroeste 0 -- -- 51
2021-02-09 07:00:00 14.3 14 Noroeste 40 Noroeste 0 -- -- 53
2021-02-09 06:00:00 14.1 10 Oeste 27 Oeste 0 -- -- 57
2021-02-09 05:00:00 14 13 Oeste 31 Oeste 0 -- -- 57
2021-02-09 04:00:00 13.6 12 Oeste 41 Oeste 0 -- -- 62
2021-02-09 03:00:00 14.1 14 Oeste 30 Sudoeste 0 -- -- 61
2021-02-09 02:00:00 14.5 14 Oeste 33 Noroeste 0 -- -- 59
2021-02-09 01:00:00 14.7 13 Oeste 33 Oeste 0 -- -- 59
2021-02-09 00:00:00 14.5 15 Oeste 29 Oeste 0 -- -- 61
2021-02-08 23:00:00 14.2 14 Oeste 42 Oeste 0 -- -- 66
2021-02-08 22:00:00 15.1 22 Noroeste 41 Oeste 0 -- -- 60
2021-02-08 21:00:00 14.5 15 Noroeste 28 Oeste 0 -- -- 63
2021-02-08 20:00:00 15.1 8 Oeste 27 Sudoeste 0 -- -- 58
2021-02-08 19:00:00 15.6 17 Noroeste 35 Oeste 0 -- -- 55
2021-02-08 18:00:00 16.9 10 Oeste 29 Oeste 0 -- -- 49
2021-02-08 17:00:00 16.9 12 Sudoeste 37 Oeste 0 -- -- 62
2021-02-08 16:00:00 17.8 19 Oeste 50 Oeste 0 -- -- 46
2021-02-08 15:00:00 17.8 17 Oeste 47 Oeste 0 -- -- 46
2021-02-08 14:00:00 17.1 18 Oeste 47 Oeste 0 -- -- 49
2021-02-08 13:00:00 16 14 Sudoeste 35 Oeste 0.2 -- -- 58
2021-02-08 12:00:00 13.7 13 Oeste 27 Oeste 0 -- -- 70
2021-02-08 11:00:00 12.7 9 Oeste 45 Noroeste 0 -- -- 76
2021-02-08 10:00:00 12.1 8 Oeste 41 Oeste 1.2 -- -- 97
2021-02-08 09:00:00 12.2 14 Sudoeste 32 Sudoeste 9.4 -- -- 99
2021-02-08 08:00:00 12 13 Sudoeste 35 Oeste 7.4 -- -- 98
2021-02-08 07:00:00 12.1 13 Sudoeste 40 Oeste 3.2 -- -- 97
2021-02-08 06:00:00 11.9 18 Sudoeste 41 Oeste 1.4 -- -- 96
2021-02-08 05:00:00 10.8 10 Noroeste 23 Noroeste 0.8 -- -- 91
2021-02-08 04:00:00 12.5 11 Noroeste 22 Oeste 0 -- -- 72
2021-02-08 03:00:00 12.1 8 Oeste 14 Oeste 0 -- -- 71
2021-02-08 02:00:00 12.7 6 Oeste 27 Oeste 0 -- -- 68
2021-02-08 01:00:00 13.4 11 Oeste 37 Noroeste 0 -- -- 64
2021-02-08 00:00:00 13.4 17 Noroeste 40 Norte 0 -- -- 60
2021-02-07 23:00:00 12.6 15 Oeste 34 Oeste 0 -- -- 58
2021-02-07 22:00:00 12.3 10 Noroeste 27 Oeste 0 -- -- 57
2021-02-07 21:00:00 12.3 8 Sudoeste 33 Oeste 0 -- -- 52
2021-02-07 20:00:00 12 11 Oeste 32 Oeste 0 -- -- 51
2021-02-07 19:00:00 13.1 17 Oeste 32 Oeste 0 -- -- 54
2021-02-07 18:00:00 14.7 12 Oeste 34 Oeste 0 -- -- 51
2021-02-07 17:00:00 16.5 18 Oeste 41 Oeste 0 -- -- 48
2021-02-07 16:00:00 16.6 16 Oeste 38 Oeste 0 -- -- 50
2021-02-07 15:00:00 15 16 Oeste 43 Sudoeste 0 -- -- 60
2021-02-07 14:00:00 15.9 17 Oeste 44 Sudoeste 0 -- -- 55
2021-02-07 13:00:00 15.4 11 Noroeste 30 Oeste 0 -- -- 55
2021-02-07 12:00:00 16.2 11 Oeste 28 Sudoeste 0 -- -- 61
2021-02-07 11:00:00 14.4 12 Sudoeste 24 Sudoeste 0 -- -- 68
2021-02-07 10:00:00 12.6 10 Oeste 26 Oeste 0 -- -- 70
2021-02-07 09:00:00 11.1 8 Noroeste 27 Noroeste 0 -- -- 73
2021-02-07 08:00:00 10.1 6 Noroeste 16 Noroeste 0 -- -- 77
2021-02-07 07:00:00 10.6 9 Noroeste 17 Noroeste 0 -- -- 76
2021-02-07 06:00:00 9.3 4 Norte 8 Norte 0 -- -- 89
2021-02-07 05:00:00 10.9 2 Oeste 22 Oeste 0 -- -- 85
2021-02-07 04:00:00 11.2 10 Oeste 22 Noroeste 0 -- -- 84
2021-02-07 03:00:00 11.5 6 Oeste 15 Noroeste 0 -- -- 79
2021-02-07 02:00:00 11.4 5 Oeste 16 Oeste 0 -- -- 80
2021-02-07 01:00:00 11.6 6 Noroeste 14 Oeste 0 -- -- 81
2021-02-07 00:00:00 12 3 Sudoeste 15 Noroeste 0 -- -- 75
2021-02-06 23:00:00 11.6 4 Oeste 16 Oeste 0 -- -- 82
2021-02-06 22:00:00 11.3 6 Noroeste 12 Oeste 0 -- -- 84
2021-02-06 21:00:00 11.1 3 Noroeste 10 Noroeste 0 -- -- 86
2021-02-06 20:00:00 12 4 Noroeste 11 Noroeste 0 -- -- 84
2021-02-06 19:00:00 12.8 5 Noroeste 21 Oeste 0 -- -- 82
2021-02-06 18:00:00 13.1 9 Oeste 34 Oeste 0 -- -- 83
2021-02-06 17:00:00 14.1 13 Sudoeste 31 Sudoeste 0 -- -- 79
2021-02-06 16:00:00 13.8 9 Oeste 31 Oeste 0 -- -- 82
2021-02-06 15:00:00 15.9 12 Sudoeste 35 Sudoeste 0 -- -- 71
2021-02-06 14:00:00 14.3 17 Sudoeste 37 Sur 0 -- -- 80
2021-02-06 13:00:00 15.3 14 Sudoeste 28 Noroeste 0 -- -- 76
2021-02-06 12:00:00 15 13 Sudoeste 25 Oeste 0 -- -- 75
2021-02-06 11:00:00 14.1 10 Sudoeste 18 Sur 0 -- -- 83
2021-02-06 10:00:00 13.3 2 Sur 6 Sur 0 -- -- 88
2021-02-06 09:00:00 11.9 0 Calma 7 Norte 0 -- -- 91
2021-02-06 08:00:00 12 3 Norte 12 Noroeste 0 -- -- 89
2021-02-06 07:00:00 12.2 8 Noroeste 27 Noroeste 0 -- -- 90
2021-02-06 06:00:00 12.1 10 Noroeste 21 Norte 0.2 -- -- 91
2021-02-06 05:00:00 12.1 10 Noroeste 23 Noroeste 0.4 -- -- 89
2021-02-06 04:00:00 12 13 Noroeste 23 Noroeste 0.8 -- -- 87
2021-02-06 03:00:00 14 10 Noroeste 22 Oeste 0 -- -- 69
2021-02-06 02:00:00 14.4 11 Noroeste 28 Noroeste 0 -- -- 61
2021-02-06 01:00:00 14.6 9 Noroeste 31 Noroeste 0 -- -- 59
2021-02-06 00:00:00 14.3 11 Noroeste 35 Norte 0 -- -- 61
2021-02-05 23:00:00 14.2 12 Noroeste 32 Noroeste 0 -- -- 64
2021-02-05 22:00:00 14 9 Norte 31 Noroeste 0 -- -- 69
2021-02-05 21:00:00 14.1 10 Noroeste 22 Noroeste 0.2 -- -- 71
2021-02-05 20:00:00 14.4 5 Sudoeste 25 Nordeste 0 -- -- 85
2021-02-05 19:00:00 14.1 8 Norte 25 Oeste 0.2 -- -- 88
2021-02-05 18:00:00 16 5 Sudoeste 15 Norte 0 -- -- 77
2021-02-05 17:00:00 16.3 8 Norte 13 Norte 0 -- -- 71
2021-02-05 16:00:00 17.2 6 Sudoeste 15 Sur 0 -- -- 71
2021-02-05 15:00:00 18 8 Sudoeste 19 Sudoeste 0 -- -- 71
2021-02-05 14:00:00 18.3 8 Sudoeste 20 Sudoeste 0 -- -- 73
2021-02-05 13:00:00 18.6 8 Sudoeste 18 Sudoeste 0 -- -- 66
2021-02-05 12:00:00 18.2 5 Oeste 17 Oeste 0 -- -- 60
2021-02-05 11:00:00 18.7 4 Sudoeste 13 Este 0 -- -- 55
2021-02-05 10:00:00 17.3 3 Sudoeste 16 Sudeste 0 -- -- 56
2021-02-05 09:00:00 18.8 8 Sudeste 28 Nordeste 0 -- -- 48
2021-02-05 08:00:00 16.6 9 Este 26 Este 0 -- -- 50
2021-02-05 07:00:00 12.9 3 Nordeste 7 Nordeste 0 -- -- 79
2021-02-05 06:00:00 12.9 0 Calma 10 Norte 0 -- -- 80
2021-02-05 05:00:00 12.8 3 Norte 12 Nordeste 0 -- -- 84
2021-02-05 04:00:00 12.7 4 Norte 7 Noroeste 0 -- -- 86
2021-02-05 03:00:00 13.4 3 Norte 10 Nordeste 0 -- -- 85
2021-02-05 02:00:00 13.3 0 Calma 8 Nordeste 0 -- -- 87
2021-02-05 01:00:00 13.1 3 Norte 13 Norte 0 -- -- 87
2021-02-05 00:00:00 12.8 0 Calma 11 Norte 0 -- -- 87
2021-02-04 23:00:00 12.9 3 Noroeste 7 Oeste 0 -- -- 90
2021-02-04 22:00:00 13 4 Norte 8 Noroeste 0 -- -- 93
2021-02-04 21:00:00 12.5 3 Nordeste 6 Nordeste 0 -- -- 91
2021-02-04 20:00:00 13.1 0 Calma 6 Norte 0 -- -- 90
2021-02-04 19:00:00 14.2 0 Calma 5 Norte 0 -- -- 89
2021-02-04 18:00:00 15.2 3 Sur 8 Sur 0 -- -- 89
2021-02-04 17:00:00 15 4 Sur 9 Sudoeste 0 -- -- 87
2021-02-04 16:00:00 16.1 4 Oeste 12 Sudeste 0 -- -- 80
2021-02-04 15:00:00 17.5 4 Sur 10 Sur 0 -- -- 73
2021-02-04 14:00:00 17.7 6 Sudoeste 11 Sudoeste 0 -- -- 74
2021-02-04 13:00:00 16.7 4 Sudoeste 12 Sudoeste 0 -- -- 77
2021-02-04 12:00:00 15.6 4 Sudoeste 10 Sudoeste 0 -- -- 78
2021-02-04 11:00:00 15.2 0 Calma 7 Sur 0 -- -- 75
2021-02-04 10:00:00 15.1 2 Sudeste 8 Nordeste 0 -- -- 70
2021-02-04 09:00:00 14.1 5 Nordeste 8 Norte 0 -- -- 69
2021-02-04 08:00:00 14.6 5 Noroeste 16 Oeste 0 -- -- 62
2021-02-04 07:00:00 13.9 4 Norte 8 Norte 0 -- -- 65
2021-02-04 06:00:00 13.4 2 Oeste 13 Norte 0 -- -- 67
2021-02-04 05:00:00 13.2 2 Noroeste 5 Norte 0 -- -- 67
2021-02-04 04:00:00 13.6 4 Norte 10 Norte 0 -- -- 65
2021-02-04 03:00:00 13.4 3 Norte 8 Norte 0 -- -- 71
2021-02-04 02:00:00 13 8 Norte 13 Norte 0 -- -- 73
2021-02-04 01:00:00 13.2 4 Norte 12 Norte 0 -- -- 75
2021-02-04 00:00:00 12.7 2 Norte 6 Norte 0 -- -- 90
2021-02-03 23:00:00 12.8 3 Norte 8 Norte 0 -- -- 85
2021-02-03 22:00:00 12.7 0 Calma 9 Nordeste 0 -- -- 85
2021-02-03 21:00:00 13.7 4 Este 8 Nordeste 0 -- -- 80
2021-02-03 20:00:00 14.3 3 Nordeste 10 Norte 0 -- -- 75
2021-02-03 19:00:00 15.1 0 Calma 8 Norte 0 -- -- 73
2021-02-03 18:00:00 16.9 0 Calma 4 Este 0 -- -- 71
2021-02-03 17:00:00 17.1 0 Calma 12 Sur 0 -- -- 69
2021-02-03 16:00:00 17.9 5 Sur 10 Sur 0 -- -- 69
2021-02-03 15:00:00 19.1 3 Sur 8 Norte 0 -- -- 63
2021-02-03 14:00:00 20.6 2 Sudoeste 10 Sudoeste 0 -- -- 47
2021-02-03 13:00:00 21.2 4 Sudoeste 9 Sudoeste 0 -- -- 37
2021-02-03 12:00:00 20.6 4 Sur 9 Sur 0 -- -- 48
2021-02-03 11:00:00 18.6 0 Calma 5 Sudeste 0 -- -- 47
2021-02-03 10:00:00 16.9 2 Sur 5 Sudeste 0 -- -- 51
2021-02-03 09:00:00 13.1 2 Este 8 Norte 0 -- -- 45
2021-02-03 08:00:00 13.2 2 Sudeste 10 Norte 0 -- -- 42
2021-02-03 07:00:00 13.6 8 Norte 12 Norte 0 -- -- 40
2021-02-03 06:00:00 13.2 4 Norte 9 Norte 0 -- -- 39
2021-02-03 05:00:00 13.1 0 Calma 5 Oeste 0 -- -- 42
2021-02-03 04:00:00 13.9 0 Calma 7 Nordeste 0 -- -- 40
2021-02-03 03:00:00 14.9 3 Nordeste 7 Nordeste 0 -- -- 37
2021-02-03 02:00:00 14.8 2 Sudeste 8 Norte 0 -- -- 47
2021-02-03 01:00:00 14.3 2 Norte 8 Sudeste 0 -- -- 49
2021-02-03 00:00:00 15.7 2 Este 8 Noroeste 0 -- -- 46
2021-02-02 23:00:00 14.5 4 Noroeste 9 Oeste 0 -- -- 60
2021-02-02 22:00:00 14.2 3 Norte 6 Norte 0 -- -- 65
2021-02-02 21:00:00 13.9 0 Calma 5 Sur 0 -- -- 74
2021-02-02 20:00:00 16 4 Nordeste 8 Norte 0 -- -- 64
2021-02-02 19:00:00 16.7 3 Nordeste 10 Noroeste 0 -- -- 67
2021-02-02 18:00:00 19.7 3 Sudoeste 13 Sudoeste 0 -- -- 59
2021-02-02 17:00:00 19.9 4 Sur 8 Sur 0 -- -- 60
2021-02-02 16:00:00 20 3 Sur 11 Sur 0 -- -- 55
2021-02-02 15:00:00 20.6 6 Sur 12 Sur 0 -- -- 50
2021-02-02 14:00:00 19.9 5 Sudoeste 10 Sudoeste 0 -- -- 54
2021-02-02 13:00:00 21.2 4 Sur 10 Sudoeste 0 -- -- 47
2021-02-02 12:00:00 19.4 2 Sudeste 10 Sudeste 0 -- -- 56
2021-02-02 11:00:00 17.9 5 Sudeste 13 Sudeste 0 -- -- 53
2021-02-02 10:00:00 16.7 2 Sur 15 Norte 0 -- -- 48
2021-02-02 09:00:00 13.9 5 Nordeste 12 Norte 0 -- -- 48
2021-02-02 08:00:00 13 6 Nordeste 10 Norte 0 -- -- 51
2021-02-02 07:00:00 12.9 3 Norte 8 Oeste 0 -- -- 49
2021-02-02 06:00:00 13.2 3 Este 16 Nordeste 0 -- -- 49
2021-02-02 05:00:00 14.2 8 Norte 15 Norte 0 -- -- 50
2021-02-02 04:00:00 13.3 4 Noroeste 18 Oeste 0 -- -- 52
2021-02-02 03:00:00 14.2 6 Norte 12 Norte 0 -- -- 46
2021-02-02 02:00:00 14.8 5 Norte 13 Norte 0 -- -- 49
2021-02-02 01:00:00 14.9 8 Norte 17 Norte 0 -- -- 45
2021-02-02 00:00:00 14.3 8 Norte 15 Norte 0 -- -- 55
2021-02-01 23:00:00 14 7 Nordeste 12 Norte 0 -- -- 64
2021-02-01 22:00:00 15.3 4 Este 16 Nordeste 0 -- -- 54
2021-02-01 21:00:00 15.4 6 Este 13 Este 0 -- -- 56
2021-02-01 20:00:00 16.5 8 Norte 18 Noroeste 0 -- -- 49
2021-02-01 19:00:00 19.6 11 Norte 46 Norte 0 -- -- 40
2021-02-01 18:00:00 20.5 19 Noroeste 42 Noroeste 0 -- -- 38
2021-02-01 17:00:00 22.1 19 Noroeste 38 Noroeste 0 -- -- 38
2021-02-01 16:00:00 22.8 13 Noroeste 27 Oeste 0 -- -- 40
2021-02-01 15:00:00 23 9 Oeste 25 Oeste 0 -- -- 43
2021-02-01 14:00:00 22.3 13 Oeste 33 Oeste 0 -- -- 46
2021-02-01 13:00:00 21.4 17 Noroeste 40 Oeste 0 -- -- 43
2021-02-01 12:00:00 20.9 11 Oeste 30 Noroeste 0 -- -- 50
2021-02-01 11:00:00 20.1 12 Noroeste 39 Noroeste 0 -- -- 47
2021-02-01 10:00:00 18.8 17 Oeste 39 Oeste 0 -- -- 49
2021-02-01 09:00:00 17.8 19 Noroeste 40 Noroeste 0 -- -- 54
2021-02-01 08:00:00 18 18 Noroeste 46 Oeste 0 -- -- 54
2021-02-01 07:00:00 18.2 16 Noroeste 39 Noroeste 0 -- -- 56
2021-02-01 06:00:00 18.4 21 Noroeste 42 Norte 0 -- -- 59
2021-02-01 05:00:00 17.3 19 Noroeste 32 Noroeste 0 -- -- 70
2021-02-01 04:00:00 17.2 13 Noroeste 34 Oeste 0 -- -- 68
2021-02-01 03:00:00 16.9 13 Noroeste 33 Oeste 0 -- -- 68
2021-02-01 02:00:00 16.6 17 Oeste 39 Oeste 0 -- -- 72
2021-02-01 01:00:00 16.7 19 Noroeste 44 Sudoeste 0 -- -- 70
2021-02-01 00:00:00 16.6 14 Oeste 32 Oeste 0 -- -- 69
2021-01-31 23:00:00 15.9 9 Sudoeste 32 Noroeste 0 -- -- 72
2021-01-31 22:00:00 16.2 10 Oeste 32 Noroeste 0 -- -- 71
2021-01-31 21:00:00 16.7 10 Oeste 27 Noroeste 0 -- -- 66
2021-01-31 20:00:00 16.8 12 Oeste 33 Oeste 0 -- -- 66
2021-01-31 19:00:00 17.1 10 Oeste 26 Oeste 0 -- -- 65
2021-01-31 18:00:00 18.3 9 Oeste 35 Noroeste 0 -- -- 60
2021-01-31 17:00:00 19.3 6 Oeste 36 Noroeste 0 -- -- 56
2021-01-31 16:00:00 19.4 10 Noroeste 28 Noroeste 0 -- -- 54
2021-01-31 15:00:00 19.2 11 Oeste 33 Norte 0 -- -- 55
2021-01-31 14:00:00 18.7 18 Noroeste 42 Noroeste 0 -- -- 57
2021-01-31 13:00:00 19.7 16 Norte 40 Norte 0 -- -- 55
2021-01-31 12:00:00 18.3 19 Noroeste 39 Oeste 0 -- -- 54
2021-01-31 11:00:00 16.3 18 Oeste 36 Noroeste 0 -- -- 58
2021-01-31 10:00:00 15.6 20 Oeste 71 Oeste 0 -- -- 56
2021-01-31 09:00:00 14.7 33 Oeste 59 Oeste 0 -- -- 58
2021-01-31 08:00:00 14.4 23 Oeste 49 Noroeste 0 -- -- 58
2021-01-31 07:00:00 14.7 21 Oeste 39 Oeste 0 -- -- 54
2021-01-31 06:00:00 14 20 Oeste 48 Oeste 0 -- -- 54
2021-01-31 05:00:00 13.8 13 Noroeste 27 Oeste 0 -- -- 54
2021-01-31 04:00:00 13.9 13 Noroeste 35 Norte 0 -- -- 52
2021-01-31 03:00:00 14.6 20 Noroeste 46 Noroeste 0 -- -- 48
2021-01-31 02:00:00 14.8 19 Noroeste 56 Oeste 0 -- -- 47
2021-01-31 01:00:00 15 11 Oeste 40 Oeste 0 -- -- 48
2021-01-31 00:00:00 15.4 13 Oeste 37 Sudoeste 0 -- -- 49
2021-01-30 23:00:00 15.1 5 Oeste 39 Sudoeste 0 -- -- 56
2021-01-30 22:00:00 16.1 8 Sudoeste 35 Sudoeste 0 -- -- 51
2021-01-30 21:00:00 15.4 4 Nordeste 27 Oeste 0 -- -- 49
2021-01-30 20:00:00 16.6 10 Sudoeste 38 Oeste 0 -- -- 48
2021-01-30 19:00:00 17.3 13 Oeste 41 Oeste 0 -- -- 45
2021-01-30 18:00:00 18.5 22 Oeste 52 Noroeste 0 -- -- 44
2021-01-30 17:00:00 20.1 24 Oeste 62 Sudoeste 0 -- -- 41
2021-01-30 16:00:00 21.2 23 Oeste 57 Sudoeste 0 -- -- 44
2021-01-30 15:00:00 21.1 23 Oeste 57 Oeste 0 -- -- 46
2021-01-30 14:00:00 20.8 21 Oeste 48 Oeste 0 -- -- 51
2021-01-30 13:00:00 20.1 19 Oeste 41 Sudoeste 0 -- -- 59
2021-01-30 12:00:00 18.3 12 Sudoeste 28 Sudoeste 0 -- -- 68
2021-01-30 11:00:00 17.9 3 Sudoeste 6 Sudoeste 0 -- -- 62
2021-01-30 10:00:00 15.7 3 Sudeste 13 Este 0 -- -- 69
2021-01-30 09:00:00 12.8 4 Sudeste 12 Este 0 -- -- 75
2021-01-30 08:00:00 11.6 5 Nordeste 10 Nordeste 0 -- -- 83
2021-01-30 07:00:00 12 3 Este 11 Noroeste 0 -- -- 82
2021-01-30 06:00:00 11.9 0 Calma 10 Norte 0 -- -- 87
2021-01-30 05:00:00 11.8 0 Calma 8 Nordeste 0 -- -- 87
2021-01-30 04:00:00 12.8 7 Nordeste 12 Nordeste 0 -- -- 81
2021-01-30 03:00:00 13.1 4 Oeste 11 Noroeste 0 -- -- 74
2021-01-30 02:00:00 13.2 3 Sudoeste 6 Sudoeste 0 -- -- 73
2021-01-30 01:00:00 13.8 3 Norte 5 Sudeste 0 -- -- 74
2021-01-30 00:00:00 14.1 0 Calma 4 Sur 0 -- -- 77